createdAt,value
2018-12-11T00:01:37.021Z,0.80
2018-12-11T00:04:09.716Z,0.70
2018-12-11T00:06:35.851Z,0.70
2018-12-11T00:09:09.626Z,0.70
2018-12-11T00:11:39.367Z,0.80
2018-12-11T00:14:08.845Z,0.97
2018-12-11T00:16:38.406Z,0.60
2018-12-11T00:19:04.596Z,0.90
2018-12-11T00:21:37.424Z,0.60
2018-12-11T00:24:11.098Z,1.10
2018-12-11T00:26:43.695Z,0.83
2018-12-11T00:29:16.166Z,0.93
2018-12-11T00:31:43.950Z,1.00
2018-12-11T00:34:16.316Z,1.10
2018-12-11T00:36:49.144Z,0.73
2018-12-11T00:39:15.300Z,1.23
2018-12-11T00:41:48.128Z,0.97
2018-12-11T00:44:14.287Z,0.87
2018-12-11T00:46:40.428Z,0.87
2018-12-11T00:49:06.578Z,1.10
2018-12-11T00:51:32.709Z,0.90
2018-12-11T00:53:58.859Z,0.97
2018-12-11T00:56:25.002Z,0.93
2018-12-11T00:58:51.145Z,0.80
2018-12-11T01:01:17.288Z,1.00
2018-12-11T01:03:43.445Z,0.83
2018-12-11T01:06:09.588Z,0.97
2018-12-11T01:08:35.972Z,0.90
2018-12-11T01:11:02.129Z,1.10
2018-12-11T01:13:28.315Z,1.43
2018-12-11T01:15:54.455Z,1.10
2018-12-11T01:18:20.577Z,1.00
2018-12-11T01:20:46.779Z,1.30
2018-12-11T01:23:12.912Z,1.13
2018-12-11T01:25:39.070Z,1.20
2018-12-11T01:28:05.243Z,0.87
2018-12-11T01:30:31.404Z,1.30
2018-12-11T01:32:57.542Z,1.20
2018-12-11T01:35:23.687Z,1.20
2018-12-11T01:37:49.799Z,1.10
2018-12-11T01:40:15.950Z,1.20
2018-12-11T01:42:42.079Z,1.00
2018-12-11T01:45:08.261Z,1.23
2018-12-11T01:47:34.383Z,1.27
2018-12-11T01:50:00.533Z,1.30
2018-12-11T01:52:26.681Z,1.47
2018-12-11T01:54:52.824Z,1.33
2018-12-11T01:57:18.965Z,1.70
2018-12-11T01:59:45.108Z,1.33
2018-12-11T02:02:11.230Z,1.53
2018-12-11T02:04:37.368Z,1.47
2018-12-11T02:07:03.531Z,1.13
2018-12-11T02:09:29.683Z,1.30
2018-12-11T02:11:55.827Z,1.50
2018-12-11T02:14:21.974Z,1.57
2018-12-11T02:16:48.107Z,1.67
2018-12-11T02:19:14.303Z,1.57
2018-12-11T02:21:42.074Z,1.77
2018-12-11T02:24:08.475Z,1.60
2018-12-11T02:26:34.608Z,1.30
2018-12-11T02:29:00.763Z,1.80
2018-12-11T02:31:26.919Z,1.77
2018-12-11T02:33:53.080Z,1.70
2018-12-11T02:36:19.226Z,1.80
2018-12-11T02:38:45.578Z,1.97
2018-12-11T02:41:11.705Z,2.03
2018-12-11T02:43:37.824Z,1.90
2018-12-11T02:46:03.978Z,1.43
2018-12-11T02:48:30.131Z,1.70
2018-12-11T02:50:56.258Z,2.13
2018-12-11T02:53:22.394Z,1.63
2018-12-11T02:55:48.545Z,2.13
2018-12-11T02:58:14.674Z,2.00
2018-12-11T03:00:40.818Z,1.90
2018-12-11T03:03:06.959Z,1.97
2018-12-11T03:05:33.088Z,2.13
2018-12-11T03:07:59.218Z,2.33
2018-12-11T03:10:25.344Z,2.40
2018-12-11T03:12:51.484Z,1.80
2018-12-11T03:15:17.615Z,2.37
2018-12-11T03:17:43.752Z,2.60
2018-12-11T03:20:09.885Z,2.50
2018-12-11T03:22:36.019Z,2.20
2018-12-11T03:25:02.309Z,3.07
2018-12-11T03:27:28.475Z,2.77
2018-12-11T03:29:54.597Z,2.73
2018-12-11T03:32:20.744Z,2.10
2018-12-11T03:34:46.873Z,2.30
2018-12-11T03:37:13.026Z,1.90
2018-12-11T03:39:39.156Z,2.30
2018-12-11T03:42:05.359Z,2.23
2018-12-11T03:44:31.505Z,1.90
2018-12-11T03:46:57.633Z,2.10
2018-12-11T03:49:23.763Z,2.40
2018-12-11T03:51:49.899Z,2.77
2018-12-11T03:54:16.040Z,1.93
2018-12-11T03:56:42.204Z,2.23
2018-12-11T03:59:08.339Z,2.00
2018-12-11T04:01:34.492Z,2.47
2018-12-11T04:04:00.635Z,1.77
2018-12-11T04:06:26.755Z,1.83
2018-12-11T04:08:52.903Z,2.57
2018-12-11T04:11:19.063Z,1.90
2018-12-11T04:13:45.209Z,1.50
2018-12-11T04:16:11.358Z,1.87
2018-12-11T04:18:37.527Z,1.80
2018-12-11T04:21:03.914Z,1.60
2018-12-11T04:23:30.041Z,1.53
2018-12-11T04:25:56.155Z,1.80
2018-12-11T04:28:22.308Z,2.27
2018-12-11T04:30:48.419Z,2.03
2018-12-11T04:33:14.553Z,1.87
2018-12-11T04:35:40.679Z,1.93
2018-12-11T04:40:28.925Z,1.33
2018-12-11T04:42:55.071Z,1.50
2018-12-11T04:45:21.204Z,1.60
2018-12-11T04:47:47.379Z,1.67
2018-12-11T04:50:13.522Z,1.60
2018-12-11T04:52:39.643Z,1.60
2018-12-11T04:55:06.046Z,1.70
2018-12-11T04:57:32.190Z,1.67
2018-12-11T04:59:58.323Z,2.03
2018-12-11T05:02:24.452Z,1.80
2018-12-11T05:04:50.615Z,1.80
2018-12-11T05:07:16.755Z,1.90
2018-12-11T05:09:42.902Z,1.60
2018-12-11T05:12:09.034Z,1.40
2018-12-11T05:14:35.229Z,1.77
2018-12-11T05:17:01.355Z,2.10
2018-12-11T05:19:27.484Z,1.40
2018-12-11T05:21:53.614Z,1.57
2018-12-11T05:24:19.766Z,1.60
2018-12-11T05:26:45.916Z,1.60
2018-12-11T05:29:12.059Z,1.60
2018-12-11T05:31:38.185Z,1.73
2018-12-11T05:34:04.325Z,1.83
2018-12-11T05:36:30.471Z,1.83
2018-12-11T05:38:56.643Z,2.10
2018-12-11T05:41:22.798Z,2.20
2018-12-11T05:43:48.948Z,2.07
2018-12-11T05:46:15.083Z,2.07
2018-12-11T05:48:41.205Z,2.20
2018-12-11T05:51:07.367Z,2.17
2018-12-11T05:53:33.502Z,2.23
2018-12-11T05:55:59.642Z,2.07
2018-12-11T05:58:25.770Z,2.27
2018-12-11T06:00:51.935Z,2.40
2018-12-11T06:03:18.076Z,2.00
2018-12-11T06:05:44.240Z,2.50
2018-12-11T06:08:10.385Z,2.80
2018-12-11T06:10:36.541Z,2.53
2018-12-11T06:13:02.729Z,2.77
2018-12-11T06:15:29.736Z,2.77
2018-12-11T06:17:55.863Z,3.87
2018-12-11T06:20:22.046Z,2.93
2018-12-11T06:22:48.184Z,2.80
2018-12-11T06:25:14.340Z,3.00
2018-12-11T06:30:51.659Z,3.00
2018-12-11T06:33:26.388Z,3.03
2018-12-11T06:39:00.846Z,3.33
2018-12-11T06:41:33.536Z,2.73
2018-12-11T06:44:06.600Z,3.30
2018-12-11T06:46:42.693Z,2.90
2018-12-11T06:49:19.531Z,3.17
2018-12-11T06:51:58.359Z,3.20
2018-12-11T06:54:30.493Z,3.10
2018-12-11T06:57:10.029Z,3.20
2018-12-11T06:59:46.682Z,3.00
2018-12-11T07:02:26.211Z,2.70
2018-12-11T07:05:05.147Z,3.33
2018-12-11T07:07:40.075Z,3.00
2018-12-11T07:10:09.918Z,2.97
2018-12-11T07:12:46.607Z,3.33
2018-12-11T07:15:12.861Z,3.43
2018-12-11T07:17:38.999Z,3.60
2018-12-11T07:20:15.604Z,3.33
2018-12-11T07:22:41.747Z,3.40
2018-12-11T07:25:14.247Z,3.07
2018-12-11T07:27:46.752Z,3.20
2018-12-11T07:30:19.451Z,3.27
2018-12-11T07:35:47.031Z,2.83
2018-12-11T07:38:21.532Z,3.07
2018-12-11T07:43:30.005Z,3.17
2018-12-11T07:46:09.279Z,3.50
2018-12-11T07:48:38.955Z,3.10
2018-12-11T07:51:11.231Z,2.77
2018-12-11T07:53:37.388Z,3.50
2018-12-11T07:56:10.114Z,2.67
2018-12-11T07:58:36.264Z,2.77
2018-12-11T08:01:02.397Z,2.50
2018-12-11T08:03:35.292Z,2.40
2018-12-11T08:06:05.207Z,2.70
2018-12-11T08:08:37.351Z,2.50
2018-12-11T08:11:03.487Z,2.20
2018-12-11T08:13:36.172Z,2.37
2018-12-11T08:16:02.330Z,2.43
2018-12-11T08:18:28.547Z,2.60
2018-12-11T08:20:55.635Z,1.57
2018-12-11T08:23:21.819Z,1.93
2018-12-11T08:25:58.762Z,2.10
2018-12-11T08:28:36.101Z,1.97
2018-12-11T08:31:12.448Z,2.13
2018-12-11T08:33:45.010Z,1.90
2018-12-11T08:36:17.471Z,2.20
2018-12-11T08:38:51.329Z,2.10
2018-12-11T08:43:48.535Z,2.03
2018-12-11T08:46:14.659Z,2.20
2018-12-11T08:48:40.819Z,2.20
2018-12-11T08:51:12.998Z,1.90
2018-12-11T08:53:45.748Z,1.90
2018-12-11T08:56:11.907Z,2.37
2018-12-11T08:58:38.066Z,1.67
2018-12-11T09:01:12.463Z,2.13
2018-12-11T09:03:49.387Z,1.60
2018-12-11T09:06:15.539Z,2.17
2018-12-11T09:08:47.603Z,2.00
2018-12-11T09:11:19.991Z,1.47
2018-12-11T09:13:52.802Z,1.77
2018-12-11T09:16:25.507Z,2.23
2018-12-11T09:18:51.757Z,1.97
2018-12-11T09:21:17.931Z,1.50
2018-12-11T09:23:50.241Z,1.97
2018-12-11T09:26:24.760Z,1.73
2018-12-11T09:28:58.617Z,2.07
2018-12-11T09:31:24.852Z,2.00
2018-12-11T09:33:54.140Z,1.60
2018-12-11T09:36:20.316Z,2.07
2018-12-11T09:38:46.465Z,2.40
2018-12-11T09:44:05.401Z,2.03
2018-12-11T09:46:34.786Z,2.00
2018-12-11T09:49:09.480Z,1.90
2018-12-11T09:51:42.279Z,1.90
2018-12-11T09:54:14.988Z,2.33
2018-12-11T09:56:47.876Z,1.80
2018-12-11T09:59:27.217Z,1.80
2018-12-11T10:01:59.278Z,2.40
2018-12-11T10:04:25.391Z,2.57
2018-12-11T10:06:51.523Z,1.93
2018-12-11T10:09:17.793Z,2.50
2018-12-11T10:11:43.962Z,2.50
2018-12-11T10:14:31.748Z,2.13
2018-12-11T10:17:04.612Z,2.03
2018-12-11T10:19:37.255Z,2.20
2018-12-11T10:22:12.044Z,2.00
2018-12-11T10:24:38.173Z,2.30
2018-12-11T10:27:04.331Z,1.90
2018-12-11T10:32:30.775Z,1.97
2018-12-11T10:34:56.947Z,2.00
2018-12-11T10:37:23.230Z,2.83
2018-12-11T10:39:56.523Z,2.37
2018-12-11T10:42:22.683Z,1.77
2018-12-11T10:44:48.817Z,2.20
2018-12-11T10:50:21.265Z,2.20
2018-12-11T10:52:47.427Z,2.40
2018-12-11T10:55:30.400Z,2.10
2018-12-11T10:57:56.720Z,2.43
2018-12-11T11:00:28.892Z,2.50
2018-12-11T11:03:00.924Z,2.50
2018-12-11T11:05:27.088Z,2.10
2018-12-11T11:07:53.404Z,1.93
2018-12-11T11:10:19.583Z,2.00
2018-12-11T11:12:45.845Z,2.00
2018-12-11T11:15:12.016Z,2.30
2018-12-11T11:17:38.264Z,1.90
2018-12-11T11:20:05.350Z,2.17
2018-12-11T11:22:38.149Z,2.20
2018-12-11T11:25:06.491Z,1.83
2018-12-11T11:27:32.625Z,1.63
2018-12-11T11:29:58.804Z,2.20
2018-12-11T11:32:24.960Z,2.00
2018-12-11T11:34:57.561Z,2.30
2018-12-11T11:37:34.068Z,1.93
2018-12-11T11:40:00.211Z,2.20
2018-12-11T11:42:40.124Z,2.13
2018-12-11T11:51:12.585Z,1.93
2018-12-11T11:53:45.392Z,1.83
2018-12-11T11:56:11.534Z,1.90
2018-12-11T11:58:41.398Z,2.30
2018-12-11T12:01:07.558Z,2.27
2018-12-11T12:03:46.814Z,1.90
2018-12-11T12:06:12.970Z,2.23
2018-12-11T12:08:39.118Z,1.90
2018-12-11T12:11:05.263Z,2.17
2018-12-11T12:13:31.453Z,1.90
2018-12-11T12:15:57.667Z,1.87
2018-12-11T12:18:23.818Z,1.60
2018-12-11T12:20:49.997Z,1.83
2018-12-11T12:23:16.272Z,1.87
2018-12-11T12:25:42.417Z,1.63
2018-12-11T12:28:08.590Z,2.00
2018-12-11T12:30:35.194Z,2.13
2018-12-11T12:33:01.371Z,1.63
2018-12-11T12:35:27.541Z,2.13
2018-12-11T12:37:53.689Z,1.90
2018-12-11T12:40:19.854Z,1.67
2018-12-11T12:42:46.019Z,1.67
2018-12-11T12:45:12.192Z,1.67
2018-12-11T12:47:38.344Z,1.90
2018-12-11T12:50:04.625Z,1.20
2018-12-11T12:52:30.765Z,1.40
2018-12-11T12:54:57.062Z,2.00
2018-12-11T12:57:23.196Z,2.17
2018-12-11T12:59:49.339Z,2.00
2018-12-11T13:02:15.502Z,1.93
2018-12-11T13:04:41.732Z,1.80
2018-12-11T13:07:07.880Z,1.73
2018-12-11T13:09:34.052Z,1.67
2018-12-11T13:12:00.237Z,2.00
2018-12-11T13:14:26.380Z,2.37
2018-12-11T13:16:52.515Z,1.57
2018-12-11T13:19:18.646Z,1.80
2018-12-11T13:21:44.812Z,1.83
2018-12-11T13:24:10.958Z,1.60
2018-12-11T13:26:37.141Z,1.70
2018-12-11T13:29:03.308Z,1.80
2018-12-11T13:31:29.465Z,1.87
2018-12-11T13:33:55.598Z,1.60
2018-12-11T13:36:21.788Z,1.93
2018-12-11T13:38:47.956Z,1.90
2018-12-11T13:41:14.241Z,2.00
2018-12-11T13:43:40.510Z,2.50
2018-12-11T13:46:06.707Z,1.80
2018-12-11T13:48:32.984Z,1.60
2018-12-11T13:50:59.175Z,2.30
2018-12-11T13:53:25.367Z,1.50
2018-12-11T13:55:51.531Z,1.70
2018-12-11T13:58:17.701Z,1.50
2018-12-11T14:00:43.863Z,1.70
2018-12-11T14:03:10.019Z,2.17
2018-12-11T14:05:36.204Z,1.70
2018-12-11T14:08:02.365Z,1.63
2018-12-11T14:10:28.553Z,2.17
2018-12-11T14:12:54.731Z,2.10
2018-12-11T14:15:20.941Z,2.07
2018-12-11T14:17:47.120Z,2.27
2018-12-11T14:20:13.250Z,1.90
2018-12-11T14:22:39.493Z,2.23
2018-12-11T14:25:06.300Z,2.07
2018-12-11T14:27:32.459Z,2.00
2018-12-11T14:29:58.732Z,2.00
2018-12-11T14:32:25.045Z,2.27
2018-12-11T14:34:51.208Z,2.20
2018-12-11T14:37:17.404Z,2.20
2018-12-11T14:39:43.579Z,1.90
2018-12-11T14:42:09.744Z,1.80
2018-12-11T14:44:35.900Z,2.40
2018-12-11T14:47:02.043Z,2.17
2018-12-11T14:49:28.194Z,1.83
2018-12-11T14:51:54.345Z,2.00
2018-12-11T14:54:21.426Z,2.17
2018-12-11T14:56:47.600Z,2.00
2018-12-11T14:59:13.793Z,1.97
2018-12-11T15:01:39.955Z,1.80
2018-12-11T15:04:06.121Z,2.07
2018-12-11T15:06:32.276Z,2.17
2018-12-11T15:09:00.484Z,2.10
2018-12-11T15:11:26.635Z,2.20
2018-12-11T15:13:52.775Z,2.10
2018-12-11T15:16:19.567Z,2.40
2018-12-11T15:18:45.753Z,2.00
2018-12-11T15:21:11.894Z,2.37
2018-12-11T15:23:38.035Z,2.50
2018-12-11T15:26:05.421Z,2.37
2018-12-11T15:28:31.843Z,2.40
2018-12-11T15:31:06.224Z,3.10
2018-12-11T15:33:32.647Z,2.47
2018-12-11T15:35:58.848Z,2.33
2018-12-11T15:38:24.983Z,2.30
2018-12-11T15:40:51.139Z,2.80
2018-12-11T15:43:17.627Z,2.33
2018-12-11T15:45:43.781Z,2.60
2018-12-11T15:48:09.909Z,2.73
2018-12-11T15:50:36.069Z,2.60
2018-12-11T15:53:02.295Z,2.53
2018-12-11T15:55:28.462Z,3.10
2018-12-11T15:57:54.618Z,3.17
2018-12-11T16:00:20.789Z,3.03
2018-12-11T16:02:46.936Z,2.73
2018-12-11T16:05:13.082Z,3.40
2018-12-11T16:07:39.267Z,2.67
2018-12-11T16:10:05.569Z,2.87
2018-12-11T16:12:31.716Z,3.27
2018-12-11T16:14:57.859Z,2.87
2018-12-11T16:17:24.007Z,3.10
2018-12-11T16:19:50.155Z,3.40
2018-12-11T16:22:16.331Z,2.67
2018-12-11T16:24:42.486Z,2.80
2018-12-11T16:27:08.632Z,2.77
2018-12-11T16:29:34.785Z,3.30
2018-12-11T16:32:00.951Z,3.30
2018-12-11T16:34:27.107Z,2.70
2018-12-11T16:36:53.264Z,3.30
2018-12-11T16:39:19.395Z,2.80
2018-12-11T16:41:45.559Z,2.90
2018-12-11T16:44:11.710Z,2.70
2018-12-11T16:46:37.879Z,3.07
2018-12-11T16:49:04.062Z,2.97
2018-12-11T16:51:30.207Z,2.60
2018-12-11T16:53:56.343Z,3.17
2018-12-11T16:56:22.524Z,2.97
2018-12-11T16:58:48.679Z,3.10
2018-12-11T17:01:14.812Z,2.73
2018-12-11T17:03:40.969Z,2.47
2018-12-11T17:06:07.128Z,2.50
2018-12-11T17:08:33.295Z,2.60
2018-12-11T17:10:59.447Z,2.63
2018-12-11T17:13:25.611Z,2.47
2018-12-11T17:15:52.119Z,2.17
2018-12-11T17:18:18.271Z,3.07
2018-12-11T17:20:44.818Z,1.90
2018-12-11T17:23:10.992Z,1.90
2018-12-11T17:25:37.253Z,2.50
2018-12-11T17:28:03.403Z,2.50
2018-12-11T17:30:29.545Z,2.27
2018-12-11T17:32:55.699Z,2.60
2018-12-11T17:35:21.851Z,2.17
2018-12-11T17:37:48.022Z,2.27
2018-12-11T17:40:14.296Z,2.43
2018-12-11T17:42:40.451Z,2.13
2018-12-11T17:45:06.595Z,1.97
2018-12-11T17:47:32.743Z,2.47
2018-12-11T17:49:58.879Z,1.97
2018-12-11T17:52:25.023Z,2.13
2018-12-11T17:54:51.196Z,2.17
2018-12-11T17:57:17.369Z,2.10
2018-12-11T17:59:43.507Z,1.73
2018-12-11T18:02:11.692Z,2.23
2018-12-11T18:04:37.827Z,2.00
2018-12-11T18:07:03.972Z,1.23
2018-12-11T18:09:30.181Z,1.20
2018-12-11T18:11:56.337Z,1.40
2018-12-11T18:14:22.499Z,1.47
2018-12-11T18:16:48.676Z,0.90
2018-12-11T18:19:14.824Z,1.00
2018-12-11T18:21:40.950Z,0.70
2018-12-11T18:24:07.122Z,0.90
2018-12-11T18:26:33.268Z,0.53
2018-12-11T18:28:59.441Z,0.50
2018-12-11T18:31:25.595Z,0.40
2018-12-11T18:33:51.878Z,0.50
2018-12-11T18:36:18.175Z,0.47
2018-12-11T18:38:44.332Z,0.50
2018-12-11T18:41:10.574Z,0.50
2018-12-11T18:43:36.782Z,0.50
2018-12-11T18:46:03.080Z,0.50
2018-12-11T18:48:29.248Z,0.40
2018-12-11T18:50:55.387Z,0.50
2018-12-11T18:53:21.532Z,0.40
2018-12-11T18:55:47.664Z,0.50
2018-12-11T18:58:13.798Z,0.23
2018-12-11T19:00:39.942Z,0.47
2018-12-11T19:03:06.654Z,0.30
2018-12-11T19:05:32.833Z,0.40
2018-12-11T19:07:59.000Z,0.50
2018-12-11T19:10:25.142Z,0.63
2018-12-11T19:12:51.277Z,0.30
2018-12-11T19:15:17.554Z,0.40
2018-12-11T19:17:43.689Z,0.20
2018-12-11T19:20:09.887Z,0.43
2018-12-11T19:22:36.056Z,0.20
2018-12-11T19:25:05.588Z,0.30
2018-12-11T19:27:31.761Z,0.20
2018-12-11T19:29:57.912Z,0.30
2018-12-11T19:32:24.097Z,0.20
2018-12-11T19:34:50.239Z,0.23
2018-12-11T19:37:16.415Z,0.40
2018-12-11T19:39:42.584Z,0.20
2018-12-11T19:42:08.742Z,0.40
2018-12-11T19:44:34.876Z,0.40
2018-12-11T19:47:01.035Z,0.40
2018-12-11T19:49:27.205Z,0.40
2018-12-11T19:51:53.410Z,0.50
2018-12-11T19:54:19.525Z,0.20
2018-12-11T19:56:45.687Z,0.30
2018-12-11T19:59:11.828Z,0.50
2018-12-11T20:01:37.999Z,0.40
2018-12-11T20:04:04.919Z,0.27
2018-12-11T20:06:31.147Z,0.50
2018-12-11T20:08:57.324Z,0.33
2018-12-11T20:11:23.540Z,0.20
2018-12-11T20:13:49.687Z,0.57
2018-12-11T20:16:15.821Z,0.40
2018-12-11T20:18:41.943Z,0.30
2018-12-11T20:21:08.123Z,0.30
2018-12-11T20:23:34.306Z,0.40
2018-12-11T20:26:00.473Z,0.30
2018-12-11T20:28:26.676Z,0.33
2018-12-11T20:30:52.811Z,0.40
2018-12-11T20:33:18.965Z,0.40
2018-12-11T20:35:45.099Z,0.20
2018-12-11T20:38:11.259Z,0.43
2018-12-11T20:40:37.426Z,0.43
2018-12-11T20:43:03.914Z,0.40
2018-12-11T20:45:30.083Z,0.40
2018-12-11T20:47:56.237Z,0.30
2018-12-11T20:50:22.415Z,0.23
2018-12-11T20:52:48.611Z,0.30
2018-12-11T20:55:14.772Z,0.30
2018-12-11T20:57:40.931Z,0.40
2018-12-11T21:00:08.675Z,0.37
2018-12-11T21:02:34.875Z,0.30
2018-12-11T21:05:01.050Z,0.40
2018-12-11T21:07:27.211Z,0.47
2018-12-11T21:09:53.361Z,0.50
2018-12-11T21:12:19.518Z,0.40
2018-12-11T21:14:45.683Z,0.50
2018-12-11T21:17:11.849Z,0.60
2018-12-11T21:19:37.993Z,0.83
2018-12-11T21:22:04.159Z,0.50
2018-12-11T21:24:30.308Z,0.40
2018-12-11T21:26:56.721Z,0.53
2018-12-11T21:29:23.443Z,0.30
2018-12-11T21:31:49.599Z,0.60
2018-12-11T21:34:15.729Z,0.60
2018-12-11T21:36:41.861Z,0.53
2018-12-11T21:39:08.031Z,0.60
2018-12-11T21:41:34.171Z,0.30
2018-12-11T21:44:00.299Z,0.43
2018-12-11T21:46:26.430Z,0.33
2018-12-11T21:48:52.594Z,0.60
2018-12-11T21:51:18.741Z,0.40
2018-12-11T21:53:44.891Z,0.63
2018-12-11T21:56:11.058Z,0.50
2018-12-11T21:58:37.599Z,0.53
2018-12-11T22:01:03.806Z,0.47
2018-12-11T22:03:30.210Z,0.40
2018-12-11T22:05:56.460Z,0.40
2018-12-11T22:08:22.639Z,0.33
2018-12-11T22:10:48.831Z,0.30
2018-12-11T22:13:14.947Z,0.60
2018-12-11T22:15:41.124Z,0.50
2018-12-11T22:18:07.303Z,0.60
2018-12-11T22:20:33.499Z,0.20
2018-12-11T22:22:59.659Z,0.20
2018-12-11T22:25:25.795Z,0.40
2018-12-11T22:27:51.963Z,0.47
2018-12-11T22:30:18.118Z,0.50
2018-12-11T22:32:44.254Z,0.30
2018-12-11T22:35:10.435Z,0.50
2018-12-11T22:37:36.564Z,0.40
2018-12-11T22:40:03.988Z,0.70
2018-12-11T22:42:30.546Z,0.50
2018-12-11T22:44:56.711Z,0.33
2018-12-11T22:47:22.863Z,0.50
2018-12-11T22:49:49.019Z,0.50
2018-12-11T22:52:15.179Z,0.43
2018-12-11T22:54:41.675Z,0.40
2018-12-11T22:57:07.876Z,0.60
2018-12-11T22:59:34.040Z,0.33
2018-12-11T23:02:00.327Z,0.27
2018-12-11T23:04:26.500Z,0.40
2018-12-11T23:06:52.676Z,0.40
2018-12-11T23:09:18.823Z,0.30
2018-12-11T23:11:44.967Z,0.50
2018-12-11T23:14:11.104Z,0.40
2018-12-11T23:16:37.318Z,0.40
2018-12-11T23:19:03.491Z,0.30
2018-12-11T23:21:37.376Z,0.20
2018-12-11T23:24:09.938Z,0.43
2018-12-11T23:26:36.095Z,0.30
2018-12-11T23:29:02.294Z,0.40
2018-12-11T23:31:28.435Z,0.40
2018-12-11T23:33:55.021Z,0.43
2018-12-11T23:36:34.836Z,0.50
2018-12-11T23:39:00.987Z,0.20
2018-12-11T23:41:33.955Z,0.20
2018-12-11T23:44:06.818Z,0.60
2018-12-11T23:46:41.688Z,0.30
2018-12-11T23:49:09.842Z,0.47
2018-12-11T23:51:44.511Z,0.30
2018-12-11T23:54:24.164Z,0.30
2018-12-11T23:57:00.224Z,0.70
2018-12-11T23:59:36.849Z,0.30
